Pickwick Dam, TN

8:56 PM CDT on March 27, 2017 (GMT -0500)
2nd Creek cabin sites Pickwick Lake Waterloo, AL | | Change Station

Elev 449 ft 34.94 °N, 88.05 °W | Updated 1 second ago

Rain
Rain
62.8 °F
Feels Like 62.8 °F
N
0.0
Wind Variable Wind from NNW

Today
High -- | Low -- °F
--% Chance of Precip.
Yesterday
High -- | Low -- °F
Precip. -- in
Pressure 29.83 in
Visibility 3.0 miles
Clouds Scattered Clouds 400 ft
Mostly Cloudy 3500 ft
Overcast 4300 ft
Dew Point 60 °F
Humidity 92%
Rainfall 0.85 in
Snow Depth Not available.
6:46 AM 7:10 PM
Waning Crescent, 0% visible
METAR KCRX 280135Z AUTO 35010G15KT 3SM VCTS RA SCT004 BKN035 OVC043 19/16 A2983 RMK AO2 LTG DSNT ALQDS
Pressure 29.83 in
Visibility 3.0 miles
Clouds Scattered Clouds 400 ft
Mostly Cloudy 3500 ft
Overcast 4300 ft
Dew Point 60 °F
Humidity 92%
Rainfall 0.85 in
Snow Depth Not available.
6:46 AM 7:10 PM
Waning Crescent, 0% visible
METAR KCRX 280135Z AUTO 35010G15KT 3SM VCTS RA SCT004 BKN035 OVC043 19/16 A2983 RMK AO2 LTG DSNT ALQDS

Get Severe Weather Alerts

Thanks for signing up!

Be on the lookout for a verification email in your inbox.

You'll start receiving the daily forecast at 8 AM.

×

10-Day Weather Forecast

Almanac

Astronomy

Mar. 27, 2017 Rise Set
Actual Time
Civil Twilight
Nautical Twilight
Astronomical Twilight
Moon
Length of Visible Light
Length of Day
Tomorrow will be .
, % of the Moon is Illuminated

Today's Extremes

State Highs State Lows

Community

WunderPhotos

Upload Photos

1,962,540 photos uploaded!

WunderBlog® & News

Nearby

Air Quality

  Air Quality AQ Index Pollutant
Not available.

Snow Depth

Station Depth Elevation

Earthquake Activity

City Distance Mag. Time & Date
Minimum magnitude displayed is 2.5.

Earthquake Activity

City Distance Mag. Time & Date
Minimum magnitude displayed is 2.5.

Coastal Water Temperatures

Place Temperature

Stations

Nearby Weather Stations

Station Location Temp. Windchill Dew Point Humidity Wind Precip. Elev Updated Type
                   

Watches & Warnings

There are currently no watches in effect.